sensor_id;sensor_type;location;lat;lon;timestamp;P1;durP1;ratioP1;P2;durP2;ratioP2
6306;SDS011;3186;54.062;9.962;2022-08-04T00:02:51;7.10;;;3.10;;
6306;SDS011;3186;54.062;9.962;2022-08-04T00:10:53;6.70;;;2.70;;
6306;SDS011;3186;54.062;9.962;2022-08-04T00:13:24;5.60;;;2.73;;
6306;SDS011;3186;54.062;9.962;2022-08-04T00:16:12;7.90;;;2.80;;
6306;SDS011;3186;54.062;9.962;2022-08-04T00:18:39;5.37;;;2.37;;
6306;SDS011;3186;54.062;9.962;2022-08-04T00:21:09;5.87;;;2.73;;
6306;SDS011;3186;54.062;9.962;2022-08-04T00:23:37;6.03;;;2.30;;
6306;SDS011;3186;54.062;9.962;2022-08-04T00:26:06;6.33;;;2.73;;
6306;SDS011;3186;54.062;9.962;2022-08-04T00:28:34;3.50;;;2.50;;
6306;SDS011;3186;54.062;9.962;2022-08-04T00:31:02;5.37;;;2.40;;
6306;SDS011;3186;54.062;9.962;2022-08-04T00:33:29;6.60;;;2.53;;
6306;SDS011;3186;54.062;9.962;2022-08-04T00:35:57;4.93;;;2.73;;
6306;SDS011;3186;54.062;9.962;2022-08-04T00:38:24;5.40;;;2.50;;
6306;SDS011;3186;54.062;9.962;2022-08-04T00:53:54;5.30;;;2.73;;
6306;SDS011;3186;54.062;9.962;2022-08-04T01:01:59;6.53;;;2.70;;
6306;SDS011;3186;54.062;9.962;2022-08-04T01:18:05;6.10;;;3.37;;
6306;SDS011;3186;54.062;9.962;2022-08-04T01:21:20;5.33;;;2.67;;
6306;SDS011;3186;54.062;9.962;2022-08-04T01:34:18;6.47;;;3.10;;
6306;SDS011;3186;54.062;9.962;2022-08-04T01:36:46;6.40;;;2.63;;
6306;SDS011;3186;54.062;9.962;2022-08-04T01:39:41;5.70;;;2.57;;
6306;SDS011;3186;54.062;9.962;2022-08-04T01:42:14;6.73;;;2.90;;
6306;SDS011;3186;54.062;9.962;2022-08-04T01:44:42;6.33;;;3.30;;
6306;SDS011;3186;54.062;9.962;2022-08-04T01:47:12;6.67;;;2.90;;
6306;SDS011;3186;54.062;9.962;2022-08-04T01:49:41;6.80;;;2.87;;
6306;SDS011;3186;54.062;9.962;2022-08-04T01:52:11;7.57;;;2.90;;
6306;SDS011;3186;54.062;9.962;2022-08-04T01:54:41;5.80;;;2.93;;
6306;SDS011;3186;54.062;9.962;2022-08-04T01:57:08;6.43;;;2.70;;
6306;SDS011;3186;54.062;9.962;2022-08-04T01:59:35;5.70;;;2.83;;
6306;SDS011;3186;54.062;9.962;2022-08-04T02:02:06;4.37;;;2.60;;
6306;SDS011;3186;54.062;9.962;2022-08-04T02:04:33;5.27;;;2.70;;
6306;SDS011;3186;54.062;9.962;2022-08-04T02:15:35;6.77;;;3.13;;
6306;SDS011;3186;54.062;9.962;2022-08-04T02:18:32;6.17;;;3.20;;
6306;SDS011;3186;54.062;9.962;2022-08-04T02:20:38;8.23;;;3.43;;
6306;SDS011;3186;54.062;9.962;2022-08-04T02:23:21;7.07;;;2.60;;
6306;SDS011;3186;54.062;9.962;2022-08-04T02:25:59;5.50;;;2.53;;
6306;SDS011;3186;54.062;9.962;2022-08-04T02:29:15;7.37;;;3.13;;
6306;SDS011;3186;54.062;9.962;2022-08-04T02:31:32;5.47;;;2.83;;
6306;SDS011;3186;54.062;9.962;2022-08-04T02:34:27;7.83;;;3.07;;
6306;SDS011;3186;54.062;9.962;2022-08-04T02:36:56;7.50;;;2.60;;
6306;SDS011;3186;54.062;9.962;2022-08-04T02:39:25;5.50;;;2.63;;
6306;SDS011;3186;54.062;9.962;2022-08-04T02:41:58;6.90;;;2.73;;
6306;SDS011;3186;54.062;9.962;2022-08-04T02:44:27;5.33;;;2.80;;
6306;SDS011;3186;54.062;9.962;2022-08-04T02:46:54;5.73;;;2.87;;
6306;SDS011;3186;54.062;9.962;2022-08-04T02:49:21;5.90;;;3.23;;
6306;SDS011;3186;54.062;9.962;2022-08-04T02:51:52;5.93;;;3.00;;
6306;SDS011;3186;54.062;9.962;2022-08-04T02:54:22;4.00;;;2.73;;
6306;SDS011;3186;54.062;9.962;2022-08-04T02:57:00;9.30;;;3.20;;
6306;SDS011;3186;54.062;9.962;2022-08-04T02:59:26;5.00;;;2.80;;
6306;SDS011;3186;54.062;9.962;2022-08-04T03:01:55;5.87;;;3.13;;
6306;SDS011;3186;54.062;9.962;2022-08-04T03:04:34;9.37;;;2.80;;
6306;SDS011;3186;54.062;9.962;2022-08-04T04:15:53;6.53;;;3.20;;
6306;SDS011;3186;54.062;9.962;2022-08-04T04:24:18;4.13;;;3.00;;
6306;SDS011;3186;54.062;9.962;2022-08-04T04:45:09;4.13;;;2.73;;
6306;SDS011;3186;54.062;9.962;2022-08-04T04:47:46;6.90;;;2.77;;
6306;SDS011;3186;54.062;9.962;2022-08-04T04:50:25;3.90;;;2.37;;
6306;SDS011;3186;54.062;9.962;2022-08-04T04:58:51;5.90;;;3.10;;
6306;SDS011;3186;54.062;9.962;2022-08-04T05:03:51;5.77;;;2.50;;
6306;SDS011;3186;54.062;9.962;2022-08-04T05:06:43;3.83;;;2.50;;
6306;SDS011;3186;54.062;9.962;2022-08-04T05:15:00;3.53;;;2.23;;
6306;SDS011;3186;54.062;9.962;2022-08-04T05:28:35;5.87;;;2.30;;
6306;SDS011;3186;54.062;9.962;2022-08-04T05:31:11;7.43;;;3.57;;
6306;SDS011;3186;54.062;9.962;2022-08-04T05:33:47;8.30;;;3.37;;
6306;SDS011;3186;54.062;9.962;2022-08-04T05:36:23;9.50;;;3.60;;
6306;SDS011;3186;54.062;9.962;2022-08-04T05:39:02;7.17;;;3.80;;
6306;SDS011;3186;54.062;9.962;2022-08-04T05:42:06;7.80;;;3.03;;
6306;SDS011;3186;54.062;9.962;2022-08-04T05:44:35;9.23;;;3.40;;
6306;SDS011;3186;54.062;9.962;2022-08-04T05:47:02;12.03;;;3.90;;
6306;SDS011;3186;54.062;9.962;2022-08-04T05:49:29;7.73;;;3.47;;
6306;SDS011;3186;54.062;9.962;2022-08-04T05:52:12;9.30;;;3.03;;
6306;SDS011;3186;54.062;9.962;2022-08-04T05:54:39;12.37;;;3.80;;
6306;SDS011;3186;54.062;9.962;2022-08-04T05:57:27;7.73;;;2.87;;
6306;SDS011;3186;54.062;9.962;2022-08-04T05:59:54;6.47;;;2.80;;
6306;SDS011;3186;54.062;9.962;2022-08-04T06:02:21;9.67;;;3.17;;
6306;SDS011;3186;54.062;9.962;2022-08-04T06:04:48;8.47;;;2.83;;
6306;SDS011;3186;54.062;9.962;2022-08-04T06:07:16;6.07;;;3.00;;
6306;SDS011;3186;54.062;9.962;2022-08-04T06:09:42;11.97;;;4.60;;
6306;SDS011;3186;54.062;9.962;2022-08-04T06:12:31;7.83;;;3.20;;
6306;SDS011;3186;54.062;9.962;2022-08-04T06:15:07;6.70;;;2.77;;
6306;SDS011;3186;54.062;9.962;2022-08-04T06:17:48;8.70;;;3.13;;
6306;SDS011;3186;54.062;9.962;2022-08-04T06:20:17;10.47;;;3.27;;
6306;SDS011;3186;54.062;9.962;2022-08-04T06:22:44;8.33;;;2.50;;
6306;SDS011;3186;54.062;9.962;2022-08-04T06:25:15;10.30;;;2.97;;
6306;SDS011;3186;54.062;9.962;2022-08-04T06:27:44;11.70;;;3.37;;
6306;SDS011;3186;54.062;9.962;2022-08-04T06:30:12;6.00;;;2.93;;
6306;SDS011;3186;54.062;9.962;2022-08-04T06:32:42;8.10;;;2.93;;
6306;SDS011;3186;54.062;9.962;2022-08-04T06:35:13;8.20;;;2.90;;
6306;SDS011;3186;54.062;9.962;2022-08-04T06:37:42;12.43;;;3.40;;
6306;SDS011;3186;54.062;9.962;2022-08-04T06:40:13;11.53;;;3.73;;
6306;SDS011;3186;54.062;9.962;2022-08-04T06:42:43;8.63;;;3.43;;
6306;SDS011;3186;54.062;9.962;2022-08-04T06:45:11;8.57;;;3.13;;
6306;SDS011;3186;54.062;9.962;2022-08-04T06:47:38;8.97;;;2.80;;
6306;SDS011;3186;54.062;9.962;2022-08-04T06:50:07;7.30;;;2.80;;
6306;SDS011;3186;54.062;9.962;2022-08-04T06:52:34;9.77;;;3.23;;
6306;SDS011;3186;54.062;9.962;2022-08-04T06:55:00;8.80;;;2.70;;
6306;SDS011;3186;54.062;9.962;2022-08-04T06:57:27;8.83;;;2.63;;
6306;SDS011;3186;54.062;9.962;2022-08-04T07:02:37;5.70;;;2.67;;
6306;SDS011;3186;54.062;9.962;2022-08-04T07:05:12;5.17;;;2.03;;
6306;SDS011;3186;54.062;9.962;2022-08-04T07:07:39;8.33;;;2.80;;
6306;SDS011;3186;54.062;9.962;2022-08-04T07:10:06;6.03;;;2.50;;
6306;SDS011;3186;54.062;9.962;2022-08-04T07:12:32;8.37;;;3.10;;
6306;SDS011;3186;54.062;9.962;2022-08-04T07:14:59;6.43;;;2.80;;
6306;SDS011;3186;54.062;9.962;2022-08-04T07:17:27;6.50;;;2.37;;
6306;SDS011;3186;54.062;9.962;2022-08-04T07:19:54;5.67;;;2.33;;
6306;SDS011;3186;54.062;9.962;2022-08-04T07:22:21;6.37;;;2.50;;
6306;SDS011;3186;54.062;9.962;2022-08-04T07:24:52;10.60;;;2.87;;
6306;SDS011;3186;54.062;9.962;2022-08-04T07:27:19;7.77;;;2.50;;
6306;SDS011;3186;54.062;9.962;2022-08-04T07:29:45;5.47;;;2.23;;
6306;SDS011;3186;54.062;9.962;2022-08-04T07:32:12;7.47;;;2.50;;
6306;SDS011;3186;54.062;9.962;2022-08-04T07:34:40;5.33;;;2.47;;
6306;SDS011;3186;54.062;9.962;2022-08-04T07:37:07;7.43;;;2.47;;
6306;SDS011;3186;54.062;9.962;2022-08-04T07:39:33;8.23;;;2.50;;
6306;SDS011;3186;54.062;9.962;2022-08-04T07:42:01;6.67;;;2.50;;
6306;SDS011;3186;54.062;9.962;2022-08-04T07:44:31;6.40;;;2.30;;
6306;SDS011;3186;54.062;9.962;2022-08-04T07:46:58;10.20;;;3.00;;
6306;SDS011;3186;54.062;9.962;2022-08-04T07:49:25;9.83;;;2.83;;
6306;SDS011;3186;54.062;9.962;2022-08-04T07:51:52;7.63;;;2.33;;
6306;SDS011;3186;54.062;9.962;2022-08-04T07:54:19;7.93;;;4.73;;
6306;SDS011;3186;54.062;9.962;2022-08-04T07:56:45;12.10;;;2.90;;
6306;SDS011;3186;54.062;9.962;2022-08-04T07:59:15;7.33;;;2.00;;
6306;SDS011;3186;54.062;9.962;2022-08-04T08:01:45;8.90;;;2.43;;
6306;SDS011;3186;54.062;9.962;2022-08-04T08:04:12;6.13;;;2.90;;
6306;SDS011;3186;54.062;9.962;2022-08-04T08:06:39;9.33;;;3.03;;
6306;SDS011;3186;54.062;9.962;2022-08-04T08:09:10;6.07;;;2.47;;
6306;SDS011;3186;54.062;9.962;2022-08-04T08:11:38;6.90;;;2.53;;
6306;SDS011;3186;54.062;9.962;2022-08-04T08:14:04;4.30;;;2.10;;
6306;SDS011;3186;54.062;9.962;2022-08-04T08:16:32;6.20;;;2.53;;
6306;SDS011;3186;54.062;9.962;2022-08-04T08:18:59;6.23;;;2.17;;
6306;SDS011;3186;54.062;9.962;2022-08-04T08:21:26;5.50;;;2.60;;
6306;SDS011;3186;54.062;9.962;2022-08-04T08:23:52;7.80;;;2.10;;
6306;SDS011;3186;54.062;9.962;2022-08-04T08:26:18;6.43;;;2.30;;
6306;SDS011;3186;54.062;9.962;2022-08-04T08:28:44;6.20;;;2.60;;
6306;SDS011;3186;54.062;9.962;2022-08-04T08:31:11;6.73;;;2.20;;
6306;SDS011;3186;54.062;9.962;2022-08-04T08:33:36;6.37;;;2.30;;
6306;SDS011;3186;54.062;9.962;2022-08-04T08:44:23;7.57;;;2.07;;
6306;SDS011;3186;54.062;9.962;2022-08-04T08:47:18;5.47;;;1.80;;
6306;SDS011;3186;54.062;9.962;2022-08-04T08:58:34;5.77;;;2.20;;
6306;SDS011;3186;54.062;9.962;2022-08-04T09:01:13;4.00;;;1.80;;
6306;SDS011;3186;54.062;9.962;2022-08-04T09:06:57;4.80;;;2.27;;
6306;SDS011;3186;54.062;9.962;2022-08-04T09:09:37;3.90;;;1.93;;
6306;SDS011;3186;54.062;9.962;2022-08-04T09:14:50;4.07;;;2.00;;
6306;SDS011;3186;54.062;9.962;2022-08-04T09:17:42;7.27;;;1.70;;
6306;SDS011;3186;54.062;9.962;2022-08-04T09:20:42;2.73;;;1.80;;
6306;SDS011;3186;54.062;9.962;2022-08-04T09:25:48;5.07;;;1.90;;
6306;SDS011;3186;54.062;9.962;2022-08-04T09:29:14;3.83;;;2.27;;
6306;SDS011;3186;54.062;9.962;2022-08-04T09:31:42;5.30;;;2.10;;
6306;SDS011;3186;54.062;9.962;2022-08-04T09:34:26;5.90;;;2.13;;
6306;SDS011;3186;54.062;9.962;2022-08-04T09:47:51;6.57;;;2.10;;
6306;SDS011;3186;54.062;9.962;2022-08-04T10:01:12;4.57;;;2.07;;
6306;SDS011;3186;54.062;9.962;2022-08-04T10:03:47;3.37;;;1.50;;
6306;SDS011;3186;54.062;9.962;2022-08-04T10:17:11;3.00;;;1.40;;
6306;SDS011;3186;54.062;9.962;2022-08-04T10:28:43;3.27;;;1.20;;
6306;SDS011;3186;54.062;9.962;2022-08-04T10:31:26;3.73;;;1.30;;
6306;SDS011;3186;54.062;9.962;2022-08-04T10:34:01;2.90;;;1.23;;
6306;SDS011;3186;54.062;9.962;2022-08-04T10:36:38;3.70;;;1.30;;
6306;SDS011;3186;54.062;9.962;2022-08-04T10:39:19;2.57;;;1.23;;
6306;SDS011;3186;54.062;9.962;2022-08-04T10:42:15;3.03;;;1.20;;
6306;SDS011;3186;54.062;9.962;2022-08-04T10:48:23;1.60;;;1.40;;
6306;SDS011;3186;54.062;9.962;2022-08-04T10:51:16;3.50;;;1.57;;
6306;SDS011;3186;54.062;9.962;2022-08-04T10:53:58;2.77;;;1.40;;
6306;SDS011;3186;54.062;9.962;2022-08-04T10:57:27;2.17;;;1.80;;
6306;SDS011;3186;54.062;9.962;2022-08-04T10:59:32;3.57;;;2.30;;
6306;SDS011;3186;54.062;9.962;2022-08-04T11:04:54;2.27;;;1.70;;
6306;SDS011;3186;54.062;9.962;2022-08-04T11:07:40;2.83;;;1.93;;
6306;SDS011;3186;54.062;9.962;2022-08-04T11:10:11;4.43;;;2.03;;
6306;SDS011;3186;54.062;9.962;2022-08-04T11:12:37;4.93;;;2.10;;
6306;SDS011;3186;54.062;9.962;2022-08-04T11:17:46;3.10;;;2.20;;
6306;SDS011;3186;54.062;9.962;2022-08-04T11:20:28;3.50;;;2.17;;
6306;SDS011;3186;54.062;9.962;2022-08-04T11:23:05;6.33;;;1.80;;
6306;SDS011;3186;54.062;9.962;2022-08-04T11:28:17;4.90;;;1.90;;
6306;SDS011;3186;54.062;9.962;2022-08-04T11:30:55;2.40;;;1.70;;
6306;SDS011;3186;54.062;9.962;2022-08-04T11:36:31;3.33;;;1.80;;
6306;SDS011;3186;54.062;9.962;2022-08-04T11:39:06;3.73;;;2.40;;
6306;SDS011;3186;54.062;9.962;2022-08-04T11:45:03;4.97;;;1.87;;
6306;SDS011;3186;54.062;9.962;2022-08-04T11:47:31;2.67;;;1.67;;
6306;SDS011;3186;54.062;9.962;2022-08-04T11:50:12;3.63;;;1.90;;
6306;SDS011;3186;54.062;9.962;2022-08-04T11:52:45;2.10;;;1.80;;
6306;SDS011;3186;54.062;9.962;2022-08-04T11:55:13;2.42;;;1.88;;
6306;SDS011;3186;54.062;9.962;2022-08-04T11:57:40;12.45;;;3.33;;
6306;SDS011;3186;54.062;9.962;2022-08-04T12:00:08;7.13;;;1.88;;
6306;SDS011;3186;54.062;9.962;2022-08-04T12:05:26;6.80;;;1.83;;
6306;SDS011;3186;54.062;9.962;2022-08-04T12:08:02;2.70;;;1.98;;
6306;SDS011;3186;54.062;9.962;2022-08-04T12:16:31;4.85;;;2.20;;
6306;SDS011;3186;54.062;9.962;2022-08-04T12:19:49;4.05;;;1.92;;
6306;SDS011;3186;54.062;9.962;2022-08-04T12:21:58;3.70;;;1.85;;
6306;SDS011;3186;54.062;9.962;2022-08-04T12:27:35;5.78;;;1.80;;
6306;SDS011;3186;54.062;9.962;2022-08-04T12:30:06;3.70;;;1.88;;
6306;SDS011;3186;54.062;9.962;2022-08-04T12:40:45;4.65;;;1.88;;
6306;SDS011;3186;54.062;9.962;2022-08-04T12:45:55;4.60;;;1.70;;
6306;SDS011;3186;54.062;9.962;2022-08-04T12:48:26;4.20;;;2.03;;
6306;SDS011;3186;54.062;9.962;2022-08-04T12:50:53;4.40;;;1.92;;
6306;SDS011;3186;54.062;9.962;2022-08-04T12:53:21;2.60;;;2.05;;
6306;SDS011;3186;54.062;9.962;2022-08-04T12:55:54;4.30;;;2.00;;
6306;SDS011;3186;54.062;9.962;2022-08-04T12:58:23;2.13;;;1.80;;
6306;SDS011;3186;54.062;9.962;2022-08-04T13:00:52;1.88;;;1.73;;
6306;SDS011;3186;54.062;9.962;2022-08-04T13:03:21;4.75;;;2.38;;
6306;SDS011;3186;54.062;9.962;2022-08-04T13:05:52;2.90;;;2.50;;
6306;SDS011;3186;54.062;9.962;2022-08-04T13:08:20;2.30;;;1.97;;
6306;SDS011;3186;54.062;9.962;2022-08-04T13:10:48;2.83;;;1.77;;
6306;SDS011;3186;54.062;9.962;2022-08-04T13:13:18;3.20;;;2.13;;
6306;SDS011;3186;54.062;9.962;2022-08-04T13:15:56;7.40;;;1.98;;
6306;SDS011;3186;54.062;9.962;2022-08-04T13:18:24;2.17;;;1.98;;
6306;SDS011;3186;54.062;9.962;2022-08-04T13:20:51;5.10;;;2.08;;
6306;SDS011;3186;54.062;9.962;2022-08-04T13:23:17;3.35;;;2.05;;
6306;SDS011;3186;54.062;9.962;2022-08-04T13:25:45;3.00;;;2.08;;
6306;SDS011;3186;54.062;9.962;2022-08-04T13:28:13;2.42;;;1.80;;
6306;SDS011;3186;54.062;9.962;2022-08-04T13:30:43;5.20;;;1.98;;
6306;SDS011;3186;54.062;9.962;2022-08-04T13:33:10;1.92;;;1.77;;
6306;SDS011;3186;54.062;9.962;2022-08-04T13:35:41;4.15;;;1.80;;
6306;SDS011;3186;54.062;9.962;2022-08-04T13:38:10;5.63;;;1.73;;
6306;SDS011;3186;54.062;9.962;2022-08-04T13:40:37;4.13;;;1.80;;
6306;SDS011;3186;54.062;9.962;2022-08-04T13:43:05;2.67;;;1.90;;
6306;SDS011;3186;54.062;9.962;2022-08-04T13:45:33;1.95;;;1.75;;
6306;SDS011;3186;54.062;9.962;2022-08-04T13:48:01;3.25;;;1.70;;
6306;SDS011;3186;54.062;9.962;2022-08-04T13:50:28;1.85;;;1.70;;
6306;SDS011;3186;54.062;9.962;2022-08-04T13:52:58;2.83;;;1.90;;
6306;SDS011;3186;54.062;9.962;2022-08-04T13:55:27;2.30;;;1.95;;
6306;SDS011;3186;54.062;9.962;2022-08-04T13:58:02;2.97;;;1.90;;
6306;SDS011;3186;54.062;9.962;2022-08-04T14:00:40;1.77;;;1.67;;
6306;SDS011;3186;54.062;9.962;2022-08-04T14:03:07;2.67;;;1.60;;
6306;SDS011;3186;54.062;9.962;2022-08-04T14:05:33;1.92;;;1.73;;
6306;SDS011;3186;54.062;9.962;2022-08-04T14:08:04;2.38;;;1.73;;
6306;SDS011;3186;54.062;9.962;2022-08-04T14:10:38;3.28;;;1.95;;
6306;SDS011;3186;54.062;9.962;2022-08-04T14:13:05;4.38;;;1.70;;
6306;SDS011;3186;54.062;9.962;2022-08-04T14:15:41;3.00;;;2.00;;
6306;SDS011;3186;54.062;9.962;2022-08-04T14:28:49;6.43;;;2.10;;
6306;SDS011;3186;54.062;9.962;2022-08-04T14:31:17;7.68;;;2.55;;
6306;SDS011;3186;54.062;9.962;2022-08-04T14:33:45;4.90;;;2.17;;
6306;SDS011;3186;54.062;9.962;2022-08-04T14:36:11;9.00;;;2.65;;
6306;SDS011;3186;54.062;9.962;2022-08-04T14:41:21;4.05;;;2.60;;
6306;SDS011;3186;54.062;9.962;2022-08-04T14:43:54;6.35;;;2.65;;
6306;SDS011;3186;54.062;9.962;2022-08-04T14:46:22;4.30;;;2.38;;
6306;SDS011;3186;54.062;9.962;2022-08-04T14:54:08;4.97;;;2.65;;
6306;SDS011;3186;54.062;9.962;2022-08-04T14:56:35;5.88;;;2.60;;
6306;SDS011;3186;54.062;9.962;2022-08-04T14:59:04;5.18;;;2.42;;
6306;SDS011;3186;54.062;9.962;2022-08-04T15:01:35;4.75;;;2.80;;
6306;SDS011;3186;54.062;9.962;2022-08-04T15:04:06;7.07;;;3.13;;
6306;SDS011;3186;54.062;9.962;2022-08-04T15:06:33;8.70;;;2.80;;
6306;SDS011;3186;54.062;9.962;2022-08-04T15:09:04;4.80;;;2.50;;
6306;SDS011;3186;54.062;9.962;2022-08-04T15:11:32;5.75;;;2.90;;
6306;SDS011;3186;54.062;9.962;2022-08-04T15:13:58;8.05;;;2.35;;
6306;SDS011;3186;54.062;9.962;2022-08-04T15:16:27;6.20;;;2.88;;
6306;SDS011;3186;54.062;9.962;2022-08-04T15:18:54;6.07;;;2.58;;
6306;SDS011;3186;54.062;9.962;2022-08-04T15:21:20;4.82;;;2.55;;
6306;SDS011;3186;54.062;9.962;2022-08-04T15:23:47;7.40;;;2.72;;
6306;SDS011;3186;54.062;9.962;2022-08-04T15:26:15;6.07;;;2.38;;
6306;SDS011;3186;54.062;9.962;2022-08-04T15:28:50;4.55;;;3.00;;
6306;SDS011;3186;54.062;9.962;2022-08-04T15:31:20;5.57;;;2.08;;
6306;SDS011;3186;54.062;9.962;2022-08-04T15:33:48;2.90;;;2.20;;
6306;SDS011;3186;54.062;9.962;2022-08-04T15:36:15;5.93;;;2.70;;
6306;SDS011;3186;54.062;9.962;2022-08-04T15:39:04;7.60;;;2.90;;
6306;SDS011;3186;54.062;9.962;2022-08-04T15:41:38;6.50;;;2.47;;
6306;SDS011;3186;54.062;9.962;2022-08-04T15:47:09;7.43;;;2.40;;
6306;SDS011;3186;54.062;9.962;2022-08-04T15:49:36;6.05;;;2.55;;
6306;SDS011;3186;54.062;9.962;2022-08-04T15:52:06;6.25;;;2.28;;
6306;SDS011;3186;54.062;9.962;2022-08-04T15:54:34;8.52;;;2.53;;
6306;SDS011;3186;54.062;9.962;2022-08-04T15:57:01;8.07;;;2.55;;
6306;SDS011;3186;54.062;9.962;2022-08-04T16:12:56;5.70;;;2.13;;
6306;SDS011;3186;54.062;9.962;2022-08-04T16:15:41;9.73;;;2.87;;
6306;SDS011;3186;54.062;9.962;2022-08-04T16:18:39;7.93;;;2.67;;
6306;SDS011;3186;54.062;9.962;2022-08-04T16:21:06;5.93;;;2.47;;
6306;SDS011;3186;54.062;9.962;2022-08-04T16:29:01;8.33;;;4.30;;
6306;SDS011;3186;54.062;9.962;2022-08-04T16:34:48;10.10;;;4.00;;
6306;SDS011;3186;54.062;9.962;2022-08-04T16:37:33;7.57;;;3.10;;
6306;SDS011;3186;54.062;9.962;2022-08-04T16:42:50;8.27;;;2.70;;
6306;SDS011;3186;54.062;9.962;2022-08-04T16:45:17;4.60;;;2.20;;
6306;SDS011;3186;54.062;9.962;2022-08-04T16:50:15;9.13;;;2.83;;
6306;SDS011;3186;54.062;9.962;2022-08-04T16:52:43;5.90;;;2.40;;
6306;SDS011;3186;54.062;9.962;2022-08-04T16:55:14;5.13;;;2.90;;
6306;SDS011;3186;54.062;9.962;2022-08-04T16:57:50;5.17;;;2.23;;
6306;SDS011;3186;54.062;9.962;2022-08-04T17:00:17;5.53;;;2.00;;
6306;SDS011;3186;54.062;9.962;2022-08-04T17:03:05;5.63;;;2.13;;
6306;SDS011;3186;54.062;9.962;2022-08-04T17:05:33;8.37;;;2.63;;
6306;SDS011;3186;54.062;9.962;2022-08-04T17:07:59;8.67;;;2.13;;
6306;SDS011;3186;54.062;9.962;2022-08-04T17:12:56;5.27;;;2.33;;
6306;SDS011;3186;54.062;9.962;2022-08-04T17:15:23;4.63;;;2.13;;
6306;SDS011;3186;54.062;9.962;2022-08-04T17:17:50;7.10;;;2.50;;
6306;SDS011;3186;54.062;9.962;2022-08-04T17:20:16;6.80;;;2.13;;
6306;SDS011;3186;54.062;9.962;2022-08-04T17:22:49;4.23;;;2.10;;
6306;SDS011;3186;54.062;9.962;2022-08-04T17:25:15;7.07;;;2.40;;
6306;SDS011;3186;54.062;9.962;2022-08-04T17:27:41;9.10;;;2.70;;
6306;SDS011;3186;54.062;9.962;2022-08-04T17:30:24;4.50;;;2.43;;
6306;SDS011;3186;54.062;9.962;2022-08-04T17:32:51;6.47;;;2.80;;
6306;SDS011;3186;54.062;9.962;2022-08-04T17:35:17;4.27;;;2.63;;
6306;SDS011;3186;54.062;9.962;2022-08-04T17:37:42;8.00;;;2.63;;
6306;SDS011;3186;54.062;9.962;2022-08-04T17:40:13;9.33;;;3.03;;
6306;SDS011;3186;54.062;9.962;2022-08-04T17:42:40;5.53;;;2.60;;
6306;SDS011;3186;54.062;9.962;2022-08-04T17:45:07;4.73;;;2.37;;
6306;SDS011;3186;54.062;9.962;2022-08-04T17:47:47;5.10;;;2.10;;
6306;SDS011;3186;54.062;9.962;2022-08-04T17:50:22;4.63;;;2.60;;
6306;SDS011;3186;54.062;9.962;2022-08-04T17:53:02;5.67;;;2.63;;
6306;SDS011;3186;54.062;9.962;2022-08-04T17:55:36;8.33;;;2.67;;
6306;SDS011;3186;54.062;9.962;2022-08-04T17:58:16;10.03;;;2.67;;
6306;SDS011;3186;54.062;9.962;2022-08-04T18:00:44;4.90;;;2.57;;
6306;SDS011;3186;54.062;9.962;2022-08-04T18:03:25;4.50;;;2.13;;
6306;SDS011;3186;54.062;9.962;2022-08-04T18:05:52;7.03;;;2.40;;
6306;SDS011;3186;54.062;9.962;2022-08-04T18:08:24;5.70;;;2.33;;
6306;SDS011;3186;54.062;9.962;2022-08-04T18:10:53;6.20;;;2.30;;
6306;SDS011;3186;54.062;9.962;2022-08-04T18:13:19;5.83;;;2.10;;
6306;SDS011;3186;54.062;9.962;2022-08-04T18:15:46;3.57;;;2.37;;
6306;SDS011;3186;54.062;9.962;2022-08-04T18:18:19;5.00;;;2.50;;
6306;SDS011;3186;54.062;9.962;2022-08-04T18:20:46;5.63;;;2.37;;
6306;SDS011;3186;54.062;9.962;2022-08-04T18:23:13;3.87;;;2.10;;
6306;SDS011;3186;54.062;9.962;2022-08-04T18:25:43;5.63;;;2.17;;
6306;SDS011;3186;54.062;9.962;2022-08-04T18:28:12;3.60;;;1.70;;
6306;SDS011;3186;54.062;9.962;2022-08-04T18:30:38;3.23;;;1.90;;
6306;SDS011;3186;54.062;9.962;2022-08-04T18:33:04;3.17;;;1.43;;
6306;SDS011;3186;54.062;9.962;2022-08-04T18:35:31;2.17;;;1.60;;
6306;SDS011;3186;54.062;9.962;2022-08-04T18:37:58;1.77;;;1.57;;
6306;SDS011;3186;54.062;9.962;2022-08-04T18:40:25;3.60;;;1.63;;
6306;SDS011;3186;54.062;9.962;2022-08-04T18:42:51;3.43;;;1.80;;
6306;SDS011;3186;54.062;9.962;2022-08-04T18:45:17;6.20;;;1.80;;
6306;SDS011;3186;54.062;9.962;2022-08-04T18:47:43;1.90;;;1.70;;
6306;SDS011;3186;54.062;9.962;2022-08-04T18:50:08;3.57;;;1.50;;
6306;SDS011;3186;54.062;9.962;2022-08-04T18:52:34;2.27;;;1.40;;
6306;SDS011;3186;54.062;9.962;2022-08-04T18:55:00;3.70;;;2.07;;
6306;SDS011;3186;54.062;9.962;2022-08-04T18:57:28;2.00;;;1.60;;
6306;SDS011;3186;54.062;9.962;2022-08-04T18:59:57;4.20;;;1.80;;
6306;SDS011;3186;54.062;9.962;2022-08-04T19:02:23;3.23;;;1.73;;
6306;SDS011;3186;54.062;9.962;2022-08-04T19:04:49;1.87;;;1.50;;
6306;SDS011;3186;54.062;9.962;2022-08-04T19:07:15;1.60;;;1.37;;
6306;SDS011;3186;54.062;9.962;2022-08-04T19:09:42;4.57;;;1.97;;
6306;SDS011;3186;54.062;9.962;2022-08-04T19:12:09;2.90;;;1.83;;
6306;SDS011;3186;54.062;9.962;2022-08-04T19:14:35;3.57;;;1.57;;
6306;SDS011;3186;54.062;9.962;2022-08-04T19:17:01;3.77;;;2.00;;
6306;SDS011;3186;54.062;9.962;2022-08-04T19:19:27;3.67;;;2.13;;
6306;SDS011;3186;54.062;9.962;2022-08-04T19:21:53;4.10;;;1.77;;
6306;SDS011;3186;54.062;9.962;2022-08-04T19:24:18;4.27;;;1.63;;
6306;SDS011;3186;54.062;9.962;2022-08-04T19:26:44;2.00;;;1.63;;
6306;SDS011;3186;54.062;9.962;2022-08-04T19:29:10;3.20;;;1.53;;
6306;SDS011;3186;54.062;9.962;2022-08-04T19:31:36;5.73;;;2.03;;
6306;SDS011;3186;54.062;9.962;2022-08-04T19:34:02;3.93;;;1.90;;
6306;SDS011;3186;54.062;9.962;2022-08-04T19:36:28;4.40;;;1.60;;
6306;SDS011;3186;54.062;9.962;2022-08-04T19:38:55;5.43;;;1.73;;
6306;SDS011;3186;54.062;9.962;2022-08-04T19:41:22;4.33;;;1.77;;
6306;SDS011;3186;54.062;9.962;2022-08-04T19:43:48;5.47;;;1.90;;
6306;SDS011;3186;54.062;9.962;2022-08-04T19:46:14;3.80;;;1.63;;
6306;SDS011;3186;54.062;9.962;2022-08-04T19:48:40;4.33;;;1.83;;
6306;SDS011;3186;54.062;9.962;2022-08-04T19:51:06;6.17;;;2.00;;
6306;SDS011;3186;54.062;9.962;2022-08-04T19:53:32;5.40;;;1.90;;
6306;SDS011;3186;54.062;9.962;2022-08-04T19:55:58;5.00;;;2.13;;
6306;SDS011;3186;54.062;9.962;2022-08-04T19:58:24;10.93;;;2.70;;
6306;SDS011;3186;54.062;9.962;2022-08-04T20:00:50;5.80;;;2.37;;
6306;SDS011;3186;54.062;9.962;2022-08-04T20:03:16;6.73;;;2.10;;
6306;SDS011;3186;54.062;9.962;2022-08-04T20:05:42;8.43;;;2.50;;
6306;SDS011;3186;54.062;9.962;2022-08-04T20:08:08;4.37;;;2.00;;
6306;SDS011;3186;54.062;9.962;2022-08-04T20:10:35;6.93;;;2.40;;
6306;SDS011;3186;54.062;9.962;2022-08-04T20:13:01;8.00;;;2.87;;
6306;SDS011;3186;54.062;9.962;2022-08-04T20:15:27;8.27;;;2.57;;
6306;SDS011;3186;54.062;9.962;2022-08-04T20:17:53;8.50;;;3.20;;
6306;SDS011;3186;54.062;9.962;2022-08-04T20:20:18;9.33;;;3.10;;
6306;SDS011;3186;54.062;9.962;2022-08-04T20:22:44;11.03;;;3.50;;
6306;SDS011;3186;54.062;9.962;2022-08-04T20:25:10;9.17;;;2.87;;
6306;SDS011;3186;54.062;9.962;2022-08-04T20:27:36;9.10;;;2.83;;
6306;SDS011;3186;54.062;9.962;2022-08-04T20:30:03;7.50;;;2.63;;
6306;SDS011;3186;54.062;9.962;2022-08-04T20:32:29;11.83;;;4.03;;
6306;SDS011;3186;54.062;9.962;2022-08-04T20:34:55;14.33;;;4.77;;
6306;SDS011;3186;54.062;9.962;2022-08-04T20:37:23;6.23;;;3.20;;
6306;SDS011;3186;54.062;9.962;2022-08-04T20:42:24;10.93;;;4.17;;
6306;SDS011;3186;54.062;9.962;2022-08-04T20:44:50;9.20;;;3.70;;
6306;SDS011;3186;54.062;9.962;2022-08-04T20:47:16;11.07;;;4.07;;
6306;SDS011;3186;54.062;9.962;2022-08-04T20:49:42;10.87;;;3.87;;
6306;SDS011;3186;54.062;9.962;2022-08-04T20:52:08;13.63;;;5.17;;
6306;SDS011;3186;54.062;9.962;2022-08-04T20:54:36;12.40;;;4.93;;
6306;SDS011;3186;54.062;9.962;2022-08-04T20:57:03;14.10;;;4.80;;
6306;SDS011;3186;54.062;9.962;2022-08-04T20:59:29;10.37;;;4.60;;
6306;SDS011;3186;54.062;9.962;2022-08-04T21:01:55;10.63;;;4.10;;
6306;SDS011;3186;54.062;9.962;2022-08-04T21:04:21;10.37;;;4.40;;
6306;SDS011;3186;54.062;9.962;2022-08-04T21:06:56;14.03;;;5.07;;
6306;SDS011;3186;54.062;9.962;2022-08-04T21:09:32;10.87;;;4.67;;
6306;SDS011;3186;54.062;9.962;2022-08-04T21:11:59;10.13;;;4.67;;
6306;SDS011;3186;54.062;9.962;2022-08-04T21:14:24;17.93;;;5.50;;
6306;SDS011;3186;54.062;9.962;2022-08-04T21:16:51;11.10;;;5.33;;
6306;SDS011;3186;54.062;9.962;2022-08-04T21:19:17;9.57;;;4.57;;